createdAt,value
2023-04-29T00:02:19.221Z,75804.31
2023-04-29T00:09:53.577Z,75800.22
2023-04-29T00:17:29.167Z,75800.22
2023-04-29T00:25:04.450Z,75802.28
2023-04-29T00:32:40.284Z,75804.31
2023-04-29T00:40:15.447Z,75810.44
2023-04-29T00:47:53.145Z,75818.59
2023-04-29T00:55:27.672Z,75808.41
2023-04-29T01:03:04.572Z,75808.41
2023-04-29T01:10:45.673Z,75841.06
2023-04-29T01:18:27.304Z,75861.47
2023-04-29T01:26:03.163Z,75841.06
2023-04-29T01:33:45.919Z,75845.13
2023-04-29T01:41:28.848Z,75847.16
2023-04-29T01:49:03.372Z,75847.16
2023-04-29T01:56:38.903Z,75855.34
2023-04-29T02:04:13.297Z,75847.16
2023-04-29T02:11:48.634Z,75855.34
2023-04-29T02:19:22.579Z,75857.38
2023-04-29T02:26:59.314Z,75857.38
2023-04-29T02:34:33.307Z,75863.50
2023-04-29T02:42:08.769Z,75869.63
2023-04-29T02:49:42.716Z,75865.53
2023-04-29T02:57:18.618Z,75865.53
2023-04-29T03:04:52.619Z,75849.22
2023-04-29T03:12:28.270Z,75853.28
2023-04-29T03:20:02.307Z,75843.09
2023-04-29T03:27:37.736Z,75841.06
2023-04-29T03:35:15.604Z,75836.97
2023-04-29T03:42:51.457Z,75832.88
2023-04-29T03:50:26.195Z,75826.75
2023-04-29T03:58:01.574Z,75822.69
2023-04-29T04:05:35.618Z,75822.69
2023-04-29T04:13:11.068Z,75824.72
2023-04-29T04:20:44.995Z,75820.63
2023-04-29T04:28:20.345Z,75820.63
2023-04-29T04:35:54.245Z,75814.53
2023-04-29T04:43:29.653Z,75814.53
2023-04-29T04:51:09.431Z,75812.47
2023-04-29T04:58:45.268Z,75812.47
2023-04-29T05:06:19.781Z,75814.53
2023-04-29T05:13:55.692Z,75806.34
2023-04-29T05:21:29.694Z,75808.41
2023-04-29T05:29:05.535Z,75806.34
2023-04-29T05:36:39.390Z,75806.34
2023-04-29T05:44:14.943Z,75790.03
2023-04-29T05:51:48.847Z,75777.78
2023-04-29T05:59:24.419Z,75777.78
2023-04-29T06:07:06.302Z,75781.88
2023-04-29T06:14:41.913Z,75777.78
2023-04-29T06:22:15.894Z,75775.75
2023-04-29T06:29:51.639Z,75775.75
2023-04-29T06:37:25.798Z,75783.91
2023-04-29T06:45:01.442Z,75796.16
2023-04-29T06:52:35.531Z,75808.41
2023-04-29T07:00:11.889Z,75834.94
2023-04-29T07:07:46.073Z,75853.28
2023-04-29T07:15:21.722Z,75875.75
2023-04-29T07:22:55.831Z,75906.34
2023-04-29T07:38:23.046Z,75941.06
2023-04-29T07:53:50.847Z,75953.28
2023-04-29T08:09:18.054Z,75990.03
2023-04-29T08:16:54.712Z,76008.41
2023-04-29T08:24:29.726Z,76020.66
2023-04-29T08:39:56.765Z,76045.13
2023-04-29T08:47:34.074Z,76053.28
2023-04-29T08:55:10.020Z,76071.66
2023-04-29T09:02:50.293Z,76102.28
2023-04-29T09:10:24.946Z,76104.31
2023-04-29T09:18:00.231Z,76118.59
2023-04-29T09:25:36.553Z,76141.06
2023-04-29T09:33:14.354Z,76157.38
2023-04-29T09:40:58.887Z,76185.97
2023-04-29T09:48:35.735Z,76185.97
2023-04-29T10:04:04.412Z,76206.38
2023-04-29T10:11:41.515Z,76208.41
2023-04-29T10:19:26.707Z,76200.25
2023-04-29T10:27:01.322Z,76194.13
2023-04-29T10:34:39.090Z,76208.41
2023-04-29T10:42:21.725Z,76208.41
2023-04-29T10:50:07.693Z,76212.50
2023-04-29T10:57:42.464Z,76210.44
2023-04-29T11:05:18.781Z,76212.50
2023-04-29T11:21:18.869Z,76228.81
2023-04-29T11:28:53.251Z,76208.41
2023-04-29T11:36:28.934Z,76192.09
2023-04-29T11:44:04.969Z,76183.91
2023-04-29T11:51:40.798Z,76161.47
2023-04-29T11:59:15.438Z,76159.44
2023-04-29T12:06:53.329Z,76141.06
2023-04-29T12:22:21.811Z,76151.25
2023-04-29T12:45:42.950Z,76094.13
2023-04-29T12:53:18.430Z,76059.41
2023-04-29T13:08:45.801Z,76024.72
2023-04-29T13:16:20.287Z,76000.22
2023-04-29T13:31:48.403Z,76004.31
2023-04-29T13:47:18.048Z,75939.00
2023-04-29T13:55:30.108Z,75918.59
2023-04-29T14:10:44.791Z,75939.00
2023-04-29T14:18:18.761Z,75963.50
2023-04-29T14:25:58.879Z,75957.38
2023-04-29T14:41:47.943Z,75871.66
2023-04-29T14:57:15.501Z,75871.66
2023-04-29T15:04:49.679Z,75890.03
2023-04-29T15:44:09.494Z,75961.47
2023-04-29T15:51:43.404Z,75969.63
2023-04-29T15:59:18.748Z,75988.00
2023-04-29T16:06:54.249Z,75977.78
2023-04-29T16:14:30.348Z,75979.81
2023-04-29T16:22:04.499Z,75973.69
2023-04-29T16:29:39.631Z,75920.63
2023-04-29T16:52:59.033Z,75861.47
2023-04-29T17:00:34.580Z,75902.28
2023-04-29T17:08:12.426Z,75906.34
2023-04-29T17:15:47.783Z,75918.59
2023-04-29T17:23:22.155Z,75943.09
2023-04-29T17:31:01.309Z,75955.34
2023-04-29T17:38:35.359Z,75992.06
2023-04-29T17:46:10.804Z,76028.81
2023-04-29T17:53:44.689Z,76057.38
2023-04-29T18:17:04.679Z,76139.03
2023-04-29T18:24:38.967Z,76173.72
2023-04-29T18:32:14.224Z,76185.97
2023-04-29T18:39:48.069Z,76210.44
2023-04-29T18:47:23.409Z,76228.81
2023-04-29T19:02:50.125Z,76275.75
2023-04-29T19:10:24.512Z,76308.41
2023-04-29T19:18:00.054Z,76318.63
2023-04-29T19:25:34.168Z,76341.09
2023-04-29T19:33:10.043Z,76357.41
2023-04-29T19:40:45.067Z,76377.81
2023-04-29T19:48:24.640Z,76396.19
2023-04-29T19:55:58.626Z,76416.59
2023-04-29T20:03:36.214Z,76443.13
2023-04-29T20:11:11.544Z,76469.66
2023-04-29T20:18:47.288Z,76490.09
2023-04-29T20:26:21.217Z,76514.56
2023-04-29T20:33:56.707Z,76535.00
2023-04-29T20:41:30.721Z,76551.31
2023-04-29T20:49:06.415Z,76569.69
2023-04-29T20:56:40.488Z,76590.09
2023-04-29T21:04:15.755Z,76602.34
2023-04-29T21:11:49.825Z,76618.69
2023-04-29T21:19:25.627Z,76635.00
2023-04-29T21:27:00.048Z,76653.38
2023-04-29T21:34:35.547Z,76673.78
2023-04-29T21:42:10.154Z,76694.22
2023-04-29T21:49:45.673Z,76706.44
2023-04-29T21:57:24.137Z,76714.63
2023-04-29T22:05:08.819Z,76722.78
2023-04-29T22:12:42.802Z,76749.31
2023-04-29T22:20:18.216Z,76769.72
2023-04-29T22:27:52.477Z,76792.19
2023-04-29T22:35:28.473Z,76816.69
2023-04-29T22:43:02.475Z,76833.00
2023-04-29T22:50:38.012Z,76859.56
2023-04-29T22:58:12.174Z,76879.97
2023-04-29T23:05:47.677Z,76898.34
2023-04-29T23:13:21.801Z,76914.69
2023-04-29T23:28:49.037Z,76947.34
2023-04-29T23:36:25.340Z,76953.47
2023-04-29T23:44:01.364Z,76973.88
2023-04-29T23:51:36.665Z,76992.25
2023-04-29T23:59:10.604Z,77008.59
